Weather at Vadsø Airport

Public forecast

Using degrees Celsius for public forecast. Weather courtesy of forecast.io.

Current aviation weather report (METAR) for Vadsø Airport

Retrieved 2022/05/24 02:50 UTC (25 minutes ago):

ENVD 240250Z 04012KT 9999 FEW020 03/M00 Q1015

Closest aviation forecast (TAF) to Vadsø Airport

Forecast is more than 12 hours old.

Closest forecast is Kirkenes Airport, Høybuktmoen, 20.4 nm (37.8 km) S. Retrieved 2017/08/31 21:36 UTC (5 years ago):

TAF TAF ENKR 312300Z 3121/0109 29005KT 9999 FEW020 SCT040